Time;durP1;ratioP1;P1;durP2;ratioP2;P2;SDS_P1;SDS_P2;PMS_P1;PMS_P2;Temp;Humidity;BMP_temperature;BMP_pressure;BME280_temperature;BME280_humidity;BME280_pressure;Samples;Min_cycle;Max_cycle;Signal;HPM_P1;HPM_P2
2023/03/15 00:01:26;;;;;;;1.88;1.27;;;0.40;99.90;;;;;;5049368;28;20029;-53
2023/03/15 00:03:53;;;;;;;4.30;1.33;;;0.40;99.90;;;;;;5048145;28;20033;-57
2023/03/15 00:06:19;;;;;;;4.55;1.70;;;0.40;99.90;;;;;;5048681;28;20025;-58
2023/03/15 00:08:46;;;;;;;3.88;1.58;;;0.30;99.90;;;;;;5049383;28;20167;-58
2023/03/15 00:11:13;;;;;;;3.30;1.20;;;0.30;99.90;;;;;;5049394;28;20060;-53
2023/03/15 00:13:39;;;;;;;5.20;1.13;;;0.40;99.90;;;;;;5049516;28;20923;-57
2023/03/15 00:16:05;;;;;;;6.18;1.75;;;0.40;99.90;;;;;;5048237;28;20021;-56
2023/03/15 00:18:30;;;;;;;4.88;1.60;;;0.30;99.90;;;;;;5049830;28;20021;-57
2023/03/15 00:20:56;;;;;;;7.57;2.42;;;0.40;99.90;;;;;;5049041;28;20530;-54
2023/03/15 00:23:22;;;;;;;6.18;1.48;;;0.30;99.90;;;;;;5049469;28;20487;-57
2023/03/15 00:25:49;;;;;;;6.07;2.05;;;0.40;99.90;;;;;;5049479;28;20144;-61
2023/03/15 00:28:15;;;;;;;1.85;1.08;;;0.40;99.90;;;;;;5049389;28;20024;-56
2023/03/15 00:30:41;;;;;;;3.58;2.35;;;0.40;99.90;;;;;;5048385;28;20040;-56
2023/03/15 00:33:07;;;;;;;2.15;1.00;;;0.30;99.90;;;;;;5049286;28;20044;-56
2023/03/15 00:35:37;;;;;;;6.70;1.88;;;0.30;99.90;;;;;;5048315;28;20033;-54
2023/03/15 00:38:04;;;;;;;5.47;1.80;;;0.30;99.90;;;;;;5049229;28;20025;-59
2023/03/15 00:40:30;;;;;;;4.10;1.55;;;0.30;99.90;;;;;;5048790;28;20241;-57
2023/03/15 00:42:56;;;;;;;4.97;1.65;;;0.30;99.90;;;;;;5049501;28;20025;-54
2023/03/15 00:45:22;;;;;;;4.80;1.38;;;0.30;99.90;;;;;;5048795;28;20028;-53
2023/03/15 00:47:52;;;;;;;3.33;1.40;;;0.20;99.90;;;;;;5048912;28;20028;-55
2023/03/15 00:50:19;;;;;;;2.08;0.85;;;0.20;99.90;;;;;;5049133;28;20028;-57
2023/03/15 00:52:45;;;;;;;4.13;1.02;;;0.20;99.90;;;;;;5049216;28;20033;-58
2023/03/15 00:55:13;;;;;;;1.58;1.15;;;0.20;99.90;;;;;;5048822;28;20025;-58
2023/03/15 00:57:44;;;;;;;2.67;2.03;;;0.20;99.90;;;;;;5048877;28;20028;-54
2023/03/15 01:00:13;;;;;;;5.13;1.20;;;0.20;99.90;;;;;;5048833;28;20083;-55
2023/03/15 01:02:40;;;;;;;2.58;1.45;;;0.20;99.90;;;;;;5048450;28;20025;-55
2023/03/15 01:05:07;;;;;;;3.55;1.33;;;0.20;99.90;;;;;;5048893;28;20032;-54
2023/03/15 01:07:33;;;;;;;2.85;1.95;;;0.20;99.90;;;;;;5048804;28;20112;-62
2023/03/15 01:10:00;;;;;;;3.42;1.25;;;0.20;99.90;;;;;;5048683;28;20109;-58
2023/03/15 01:12:26;;;;;;;3.88;1.02;;;0.20;99.90;;;;;;5048700;28;20025;-58
2023/03/15 01:14:52;;;;;;;3.15;1.48;;;0.20;99.90;;;;;;5048630;28;20025;-57
2023/03/15 01:17:17;;;;;;;2.17;1.40;;;0.20;99.90;;;;;;5050619;28;20032;-58
2023/03/15 01:19:43;;;;;;;3.42;1.27;;;0.20;99.90;;;;;;5052066;28;20040;-58
2023/03/15 01:22:09;;;;;;;3.55;1.17;;;0.20;99.90;;;;;;5051174;28;20395;-54
2023/03/15 01:24:34;;;;;;;4.70;1.55;;;0.30;99.90;;;;;;5051135;28;20029;-57
2023/03/15 01:27:00;;;;;;;2.28;1.15;;;0.30;99.90;;;;;;5052621;28;20028;-56
2023/03/15 01:29:28;;;;;;;5.50;1.35;;;0.30;99.90;;;;;;5051485;28;20037;-57
2023/03/15 01:31:54;;;;;;;2.70;1.08;;;0.30;99.90;;;;;;5050503;28;20033;-57
2023/03/15 01:34:20;;;;;;;7.80;1.30;;;0.30;99.90;;;;;;5052175;28;20369;-60
2023/03/15 01:36:50;;;;;;;2.45;1.55;;;0.30;99.90;;;;;;5052444;28;20043;-58
2023/03/15 01:39:16;;;;;;;3.85;1.20;;;0.30;99.90;;;;;;5051806;28;20095;-56
2023/03/15 01:41:41;;;;;;;2.72;1.63;;;0.30;99.90;;;;;;5052546;28;20110;-58
2023/03/15 01:44:18;;;;;;;3.17;1.40;;;0.30;99.90;;;;;;5052310;28;20430;-55
2023/03/15 01:46:44;;;;;;;3.72;1.77;;;0.40;99.90;;;;;;5049967;28;20053;-58
2023/03/15 01:49:34;;;;;;;3.90;1.85;;;0.30;99.90;;;;;;5051597;28;20359;-60
2023/03/15 01:52:08;;;;;;;3.28;1.80;;;0.30;99.90;;;;;;5052530;28;20032;-55
2023/03/15 01:54:36;;;;;;;4.68;2.00;;;0.30;99.90;;;;;;5049515;28;20629;-56
2023/03/15 01:57:07;;;;;;;2.78;2.05;;;0.30;99.90;;;;;;5045811;28;20025;-54
2023/03/15 01:59:44;;;;;;;7.68;2.20;;;0.30;99.90;;;;;;5046616;28;20029;-57
2023/03/15 02:02:13;;;;;;;4.28;1.65;;;0.30;99.90;;;;;;5044376;28;20025;-53
2023/03/15 02:05:08;;;;;;;4.53;2.22;;;0.30;99.90;;;;;;5050992;28;20502;-55
2023/03/15 02:07:37;;;;;;;2.60;2.05;;;0.30;99.90;;;;;;5049431;28;20048;-53
2023/03/15 02:10:07;;;;;;;5.38;2.45;;;0.30;99.90;;;;;;5051224;28;20027;-55
2023/03/15 02:12:37;;;;;;;4.30;2.17;;;0.40;99.90;;;;;;5051548;28;20032;-56
2023/03/15 02:15:04;;;;;;;3.10;2.25;;;0.30;99.90;;;;;;5051515;28;20048;-52
2023/03/15 02:17:37;;;;;;;2.95;1.60;;;0.30;99.90;;;;;;5048886;28;20104;-57
2023/03/15 02:20:29;;;;;;;2.92;1.60;;;0.30;99.90;;;;;;5050943;28;20045;-57
2023/03/15 02:23:00;;;;;;;2.10;1.50;;;0.30;99.90;;;;;;5044616;28;20020;-56
2023/03/15 02:25:38;;;;;;;5.30;1.92;;;0.30;99.90;;;;;;5049926;28;20037;-58
2023/03/15 02:28:06;;;;;;;3.10;1.77;;;0.40;99.90;;;;;;5050927;28;20064;-52
2023/03/15 02:30:33;;;;;;;2.70;1.80;;;0.40;99.90;;;;;;5050842;28;20040;-54
2023/03/15 02:33:02;;;;;;;3.08;2.08;;;0.40;99.90;;;;;;5051685;28;20041;-55
2023/03/15 02:35:30;;;;;;;3.78;2.03;;;0.40;99.90;;;;;;5051438;28;20503;-55
2023/03/15 02:37:57;;;;;;;2.80;1.95;;;0.40;99.90;;;;;;5043891;28;20025;-54
2023/03/15 02:40:26;;;;;;;2.00;1.75;;;0.40;99.90;;;;;;5050707;28;20084;-51
2023/03/15 02:42:55;;;;;;;3.72;1.77;;;0.40;99.90;;;;;;5049453;28;20020;-53
2023/03/15 02:45:22;;;;;;;2.83;2.00;;;0.40;99.90;;;;;;5050331;28;20041;-53
2023/03/15 02:47:48;;;;;;;2.13;1.45;;;0.40;99.90;;;;;;5050662;28;20037;-59
2023/03/15 02:50:14;;;;;;;2.10;1.70;;;0.40;99.90;;;;;;5048521;28;20039;-57
2023/03/15 02:52:40;;;;;;;3.45;2.10;;;0.40;99.90;;;;;;5049391;28;20120;-56
2023/03/15 02:55:06;;;;;;;2.50;1.90;;;0.40;99.90;;;;;;5050682;28;20112;-57
2023/03/15 02:57:31;;;;;;;2.88;2.05;;;0.40;99.90;;;;;;5050541;28;20033;-53
2023/03/15 02:59:59;;;;;;;2.83;1.95;;;0.40;99.90;;;;;;5049143;28;20459;-53
2023/03/15 03:02:24;;;;;;;3.63;2.30;;;0.40;99.90;;;;;;5050560;28;20033;-55
2023/03/15 03:04:51;;;;;;;2.65;2.42;;;0.40;99.90;;;;;;5050785;28;20056;-58
2023/03/15 03:07:17;;;;;;;4.57;2.20;;;0.40;99.90;;;;;;5049578;28;20433;-51
2023/03/15 03:09:43;;;;;;;2.50;2.08;;;0.40;99.90;;;;;;5050351;28;20032;-58
2023/03/15 03:12:09;;;;;;;3.33;2.13;;;0.40;99.90;;;;;;5050711;28;20040;-60
2023/03/15 03:14:34;;;;;;;3.80;2.10;;;0.40;99.90;;;;;;5050290;28;20082;-58
2023/03/15 03:17:00;;;;;;;4.28;2.58;;;0.40;99.90;;;;;;5050329;28;20033;-57
2023/03/15 03:19:26;;;;;;;4.25;2.25;;;0.40;99.90;;;;;;5049064;28;20029;-57
2023/03/15 03:21:52;;;;;;;5.78;2.40;;;0.40;99.90;;;;;;5050753;28;20024;-57
2023/03/15 03:24:19;;;;;;;4.20;2.30;;;0.40;99.90;;;;;;5050520;28;20025;-54
2023/03/15 03:26:45;;;;;;;5.03;2.60;;;0.40;99.90;;;;;;5050155;28;20112;-59
2023/03/15 03:29:10;;;;;;;4.45;2.75;;;0.40;99.90;;;;;;5049461;28;20457;-56
2023/03/15 03:31:37;;;;;;;3.63;2.20;;;0.40;99.90;;;;;;5050510;28;20169;-56
2023/03/15 03:34:02;;;;;;;4.43;2.53;;;0.40;99.90;;;;;;5050598;28;20029;-58
2023/03/15 03:36:28;;;;;;;7.97;2.30;;;0.40;99.90;;;;;;5050395;28;20035;-57
2023/03/15 03:38:53;;;;;;;2.42;2.22;;;0.40;99.90;;;;;;5049803;28;20122;-58
2023/03/15 03:41:20;;;;;;;3.15;2.55;;;0.40;99.90;;;;;;5049242;28;20029;-58
2023/03/15 03:43:45;;;;;;;3.17;1.98;;;0.40;99.90;;;;;;5050042;28;20039;-58
2023/03/15 03:46:11;;;;;;;4.78;2.30;;;0.40;99.90;;;;;;5049802;28;20403;-57
2023/03/15 03:48:37;;;;;;;2.90;2.10;;;0.40;99.90;;;;;;5049915;28;20124;-57
2023/03/15 03:51:02;;;;;;;2.92;2.25;;;0.40;99.90;;;;;;5049693;28;20052;-54
2023/03/15 03:53:28;;;;;;;3.78;2.50;;;0.40;99.90;;;;;;5048360;28;20083;-57
2023/03/15 03:55:53;;;;;;;3.55;2.20;;;0.50;99.90;;;;;;5050094;28;20108;-60
2023/03/15 03:58:19;;;;;;;2.83;1.98;;;0.40;99.90;;;;;;5049667;28;20025;-56
2023/03/15 04:00:45;;;;;;;5.03;2.53;;;0.40;99.90;;;;;;5048311;28;20028;-54
2023/03/15 04:03:11;;;;;;;3.30;2.10;;;0.40;99.90;;;;;;5049650;28;20024;-56
2023/03/15 04:05:37;;;;;;;2.60;2.10;;;0.40;99.90;;;;;;5049550;28;20025;-54
2023/03/15 04:08:02;;;;;;;3.60;2.38;;;0.40;99.90;;;;;;5050251;28;20024;-55
2023/03/15 04:10:28;;;;;;;2.72;1.90;;;0.40;99.90;;;;;;5049276;28;20033;-58
2023/03/15 04:12:55;;;;;;;4.45;1.98;;;0.30;99.90;;;;;;5049639;28;20036;-57
2023/03/15 04:15:21;;;;;;;2.55;1.77;;;0.40;99.90;;;;;;5043854;28;20060;-58
2023/03/15 04:17:54;;;;;;;4.30;1.58;;;0.30;99.90;;;;;;5049236;28;20066;-56
2023/03/15 04:20:21;;;;;;;3.08;1.88;;;0.30;99.90;;;;;;5048554;28;20024;-51
2023/03/15 04:22:48;;;;;;;1.45;1.20;;;0.20;99.90;;;;;;5049509;28;20045;-56
2023/03/15 04:25:15;;;;;;;1.88;1.42;;;0.20;99.90;;;;;;5047629;28;20056;-54
2023/03/15 04:27:40;;;;;;;2.22;1.65;;;0.10;99.90;;;;;;5049463;28;20379;-57
2023/03/15 04:30:07;;;;;;;2.70;1.23;;;0.10;99.90;;;;;;5048588;28;20105;-51
2023/03/15 04:32:32;;;;;;;1.55;1.27;;;0.10;99.90;;;;;;5049017;28;20021;-56
2023/03/15 04:34:58;;;;;;;2.80;1.38;;;0.10;99.90;;;;;;5048663;28;20029;-55
2023/03/15 04:37:23;;;;;;;4.55;1.65;;;0.00;99.90;;;;;;5048715;28;20032;-55
2023/03/15 04:39:51;;;;;;;1.58;1.48;;;0.00;99.90;;;;;;5048942;28;20028;-59
2023/03/15 04:42:16;;;;;;;2.97;2.00;;;-0.10;99.90;;;;;;5047852;28;20032;-54
2023/03/15 04:44:42;;;;;;;1.67;1.58;;;-0.10;99.90;;;;;;5048904;28;20033;-54
2023/03/15 04:47:08;;;;;;;1.40;1.05;;;-0.10;99.90;;;;;;5049507;28;20036;-55
2023/03/15 04:49:33;;;;;;;2.38;1.20;;;-0.20;99.90;;;;;;5048713;28;20064;-55
2023/03/15 04:51:59;;;;;;;2.60;1.17;;;-0.20;99.90;;;;;;5048784;28;20059;-54
2023/03/15 04:54:25;;;;;;;3.05;1.13;;;-0.10;99.90;;;;;;5048876;28;20040;-53
2023/03/15 04:56:50;;;;;;;1.98;1.40;;;-0.20;99.90;;;;;;5048789;28;20025;-54
2023/03/15 04:59:16;;;;;;;1.98;1.40;;;-0.20;99.90;;;;;;5048985;28;20155;-56
2023/03/15 05:01:41;;;;;;;1.73;1.35;;;-0.20;99.90;;;;;;5048581;28;20056;-56
2023/03/15 05:04:07;;;;;;;2.17;1.60;;;-0.20;99.90;;;;;;5049049;28;20029;-53
2023/03/15 05:06:33;;;;;;;2.80;1.95;;;-0.20;99.90;;;;;;5048318;28;20025;-55
2023/03/15 05:08:58;;;;;;;6.78;3.25;;;-0.10;99.90;;;;;;5048696;28;20486;-53
2023/03/15 05:11:24;;;;;;;4.28;3.03;;;-0.10;99.90;;;;;;5048911;28;20511;-56
2023/03/15 05:13:49;;;;;;;6.80;3.40;;;0.00;99.90;;;;;;5045193;28;20535;-53
2023/03/15 05:16:15;;;;;;;4.90;3.28;;;0.00;99.90;;;;;;5048561;28;20025;-56
2023/03/15 05:18:40;;;;;;;6.47;4.15;;;0.00;99.90;;;;;;5048494;28;20021;-57
2023/03/15 05:21:06;;;;;;;10.23;5.18;;;0.00;99.90;;;;;;5048551;28;20096;-59
2023/03/15 05:23:35;;;;;;;7.53;5.40;;;0.00;99.90;;;;;;5046983;28;20033;-59
2023/03/15 05:26:00;;;;;;;8.32;5.07;;;0.10;99.90;;;;;;5048846;28;20020;-60
2023/03/15 05:28:26;;;;;;;7.90;5.43;;;0.00;99.90;;;;;;5047663;28;20143;-58
2023/03/15 05:30:52;;;;;;;11.38;5.85;;;0.00;99.90;;;;;;5049004;28;20021;-56
2023/03/15 05:33:19;;;;;;;9.40;5.72;;;0.00;99.90;;;;;;5048672;28;20082;-56
2023/03/15 05:35:45;;;;;;;9.73;5.22;;;0.00;99.90;;;;;;5048048;28;20116;-59
2023/03/15 05:38:14;;;;;;;13.35;6.80;;;0.10;99.90;;;;;;5048402;28;20100;-57
2023/03/15 05:40:42;;;;;;;11.23;6.88;;;0.10;99.90;;;;;;5045976;28;20116;-56
2023/03/15 05:43:07;;;;;;;10.73;5.70;;;0.00;99.90;;;;;;5050118;28;20426;-57
2023/03/15 05:45:33;;;;;;;12.27;6.97;;;0.00;99.90;;;;;;5048270;28;20087;-57
2023/03/15 05:47:59;;;;;;;8.40;6.03;;;0.00;99.90;;;;;;5048676;28;20380;-56
2023/03/15 05:50:24;;;;;;;12.05;6.22;;;0.00;99.90;;;;;;5048496;28;20394;-60
2023/03/15 05:52:50;;;;;;;9.73;5.78;;;0.00;99.90;;;;;;5045357;28;20021;-57
2023/03/15 05:55:16;;;;;;;10.95;6.10;;;-0.10;99.90;;;;;;5046993;28;20024;-57
2023/03/15 05:57:43;;;;;;;10.60;7.20;;;-0.10;99.90;;;;;;5048291;28;20035;-54
2023/03/15 06:00:09;;;;;;;10.18;6.30;;;-0.10;99.90;;;;;;5048367;28;20044;-58
2023/03/15 06:02:34;;;;;;;11.82;6.45;;;-0.10;99.90;;;;;;5048532;28;20072;-53
2023/03/15 06:05:00;;;;;;;8.88;5.78;;;-0.10;99.90;;;;;;5051169;28;20024;-57
2023/03/15 06:07:26;;;;;;;6.60;5.07;;;-0.10;99.90;;;;;;5052357;28;20120;-58
2023/03/15 06:09:51;;;;;;;10.90;5.97;;;-0.10;99.90;;;;;;5051589;28;20029;-54
2023/03/15 06:12:18;;;;;;;9.30;6.65;;;-0.10;99.90;;;;;;5052086;28;20017;-56
2023/03/15 06:14:44;;;;;;;9.13;5.25;;;-0.10;99.90;;;;;;5050402;28;20063;-59
2023/03/15 06:17:10;;;;;;;8.50;5.53;;;-0.10;99.90;;;;;;5051912;28;20036;-53
2023/03/15 06:19:35;;;;;;;8.85;4.82;;;0.00;99.90;;;;;;5050904;28;20025;-55
2023/03/15 06:22:01;;;;;;;8.38;5.40;;;0.00;99.90;;;;;;5051766;28;20021;-57
2023/03/15 06:24:26;;;;;;;9.20;5.05;;;0.00;99.90;;;;;;5051291;28;20395;-58
2023/03/15 06:26:53;;;;;;;9.15;5.28;;;0.00;99.90;;;;;;5051093;28;20033;-52
2023/03/15 06:29:20;;;;;;;8.00;4.68;;;0.10;99.90;;;;;;5051056;28;20025;-54
2023/03/15 06:31:48;;;;;;;10.02;4.95;;;0.20;99.90;;;;;;5051404;28;20025;-55
2023/03/15 06:34:14;;;;;;;10.93;4.45;;;0.20;99.90;;;;;;5051197;28;20031;-53
2023/03/15 06:36:41;;;;;;;12.80;8.02;;;0.20;99.90;;;;;;5051137;28;20025;-53
2023/03/15 06:39:07;;;;;;;15.30;8.13;;;0.30;99.90;;;;;;5048719;28;20025;-58
2023/03/15 06:41:33;;;;;;;8.48;5.30;;;0.30;99.90;;;;;;5051179;28;20357;-56
2023/03/15 06:43:59;;;;;;;7.03;4.88;;;0.40;99.90;;;;;;5049619;28;20029;-53
2023/03/15 06:46:24;;;;;;;11.60;8.35;;;0.50;99.90;;;;;;5051046;28;20116;-56
2023/03/15 06:48:50;;;;;;;17.25;10.02;;;0.50;99.90;;;;;;5049858;28;20467;-60
2023/03/15 06:51:15;;;;;;;12.35;7.68;;;0.60;99.90;;;;;;5050868;28;20032;-57
2023/03/15 06:53:41;;;;;;;14.43;9.57;;;0.70;99.90;;;;;;5050852;28;20037;-57
2023/03/15 06:56:07;;;;;;;15.48;10.70;;;0.70;99.90;;;;;;5050503;28;20037;-57
2023/03/15 06:58:32;;;;;;;12.43;8.77;;;0.80;99.90;;;;;;5050619;28;20029;-56
2023/03/15 07:00:58;;;;;;;10.20;7.80;;;0.80;99.90;;;;;;5050476;28;20013;-58
2023/03/15 07:03:23;;;;;;;11.40;8.48;;;0.90;99.90;;;;;;5050620;28;20044;-59
2023/03/15 07:05:52;;;;;;;12.38;9.55;;;1.00;99.90;;;;;;5050547;28;20021;-56
2023/03/15 07:08:18;;;;;;;7.90;5.63;;;1.00;99.90;;;;;;5050657;28;20020;-56
2023/03/15 07:10:45;;;;;;;7.18;4.90;;;1.00;99.90;;;;;;5050712;28;20041;-56
2023/03/15 07:13:11;;;;;;;11.57;5.63;;;0.90;99.90;;;;;;5050565;28;20075;-54
2023/03/15 07:15:36;;;;;;;8.65;4.20;;;0.80;99.90;;;;;;5050830;28;20068;-53
2023/03/15 07:18:02;;;;;;;7.72;4.68;;;0.70;99.90;;;;;;5050665;28;20032;-58
2023/03/15 07:20:27;;;;;;;5.55;4.03;;;0.70;99.90;;;;;;5050348;28;20385;-59
2023/03/15 07:22:53;;;;;;;5.38;2.65;;;0.60;99.90;;;;;;5050663;28;20029;-57
2023/03/15 07:25:22;;;;;;;2.42;2.13;;;0.60;99.90;;;;;;5051241;28;20035;-58
2023/03/15 07:27:49;;;;;;;4.72;2.72;;;0.50;99.90;;;;;;5050395;28;20021;-56
2023/03/15 07:30:15;;;;;;;2.83;1.65;;;0.50;99.90;;;;;;5050233;28;20025;-58
2023/03/15 07:32:41;;;;;;;2.85;1.77;;;0.50;99.90;;;;;;5050116;28;20067;-57
2023/03/15 07:35:07;;;;;;;1.48;1.08;;;0.50;99.90;;;;;;5050347;28;20442;-59
2023/03/15 07:37:33;;;;;;;3.45;1.63;;;0.50;99.90;;;;;;5047577;28;20605;-60
2023/03/15 07:40:08;;;;;;;1.88;1.33;;;0.50;99.90;;;;;;5048962;28;20025;-56
2023/03/15 07:42:34;;;;;;;2.90;2.38;;;0.60;99.90;;;;;;5048698;28;20028;-59
2023/03/15 07:45:00;;;;;;;2.70;2.50;;;0.70;99.90;;;;;;5047915;28;20028;-59
2023/03/15 07:47:25;;;;;;;2.95;2.70;;;0.70;99.90;;;;;;5050625;28;20075;-61
2023/03/15 07:49:51;;;;;;;2.80;1.92;;;0.70;99.90;;;;;;5049929;28;20100;-60
2023/03/15 07:52:17;;;;;;;2.17;1.92;;;0.80;99.90;;;;;;5051173;28;20036;-63
2023/03/15 07:54:42;;;;;;;2.85;1.75;;;0.80;99.90;;;;;;5050072;28;20540;-58
2023/03/15 07:57:08;;;;;;;3.13;1.98;;;0.80;99.90;;;;;;5050048;28;20013;-61
2023/03/15 07:59:33;;;;;;;2.95;1.88;;;0.90;99.90;;;;;;5049787;28;20029;-61
2023/03/15 08:01:59;;;;;;;4.20;2.50;;;0.90;99.90;;;;;;5050013;28;20028;-61
2023/03/15 08:04:25;;;;;;;3.90;2.70;;;0.90;99.90;;;;;;5050064;28;20024;-61
2023/03/15 08:06:50;;;;;;;5.22;2.85;;;1.00;99.90;;;;;;5048177;28;20029;-61
2023/03/15 08:09:16;;;;;;;4.47;3.53;;;1.10;99.90;;;;;;5049609;28;20074;-61
2023/03/15 08:11:41;;;;;;;4.95;3.75;;;1.20;99.90;;;;;;5049536;28;20025;-60
2023/03/15 08:14:07;;;;;;;5.72;3.83;;;1.30;99.90;;;;;;5049046;28;20039;-61
2023/03/15 08:16:32;;;;;;;9.57;4.28;;;1.50;99.90;;;;;;5049390;28;20017;-55
2023/03/15 08:18:58;;;;;;;7.30;4.65;;;1.70;99.90;;;;;;5049505;28;20029;-57
2023/03/15 08:21:23;;;;;;;5.38;4.18;;;1.80;99.90;;;;;;5049904;28;20025;-55
2023/03/15 08:23:49;;;;;;;4.85;4.00;;;2.00;99.90;;;;;;5049119;28;20036;-57
2023/03/15 08:26:15;;;;;;;6.93;3.35;;;2.10;99.90;;;;;;5047455;28;20021;-58
2023/03/15 08:28:40;;;;;;;7.38;3.95;;;2.30;99.90;;;;;;5049371;28;20017;-58
2023/03/15 08:31:12;;;;;;;5.10;3.55;;;2.40;99.90;;;;;;5049191;28;20094;-62
2023/03/15 08:33:38;;;;;;;8.68;3.78;;;2.60;99.90;;;;;;5049545;28;20510;-63
2023/03/15 08:36:04;;;;;;;5.47;3.38;;;2.80;99.90;;;;;;5048497;28;20039;-65
2023/03/15 08:38:30;;;;;;;4.93;2.90;;;2.90;99.90;;;;;;5048126;28;20040;-65
2023/03/15 08:40:56;;;;;;;4.65;2.95;;;3.00;99.90;;;;;;5048329;28;20099;-64
2023/03/15 08:43:22;;;;;;;3.22;2.47;;;3.10;99.90;;;;;;5049920;28;20021;-63
2023/03/15 08:45:49;;;;;;;6.15;3.03;;;3.30;99.90;;;;;;5049051;28;20017;-63
2023/03/15 08:48:15;;;;;;;3.88;2.42;;;3.40;99.90;;;;;;5049137;28;20028;-63
2023/03/15 08:50:40;;;;;;;5.57;2.95;;;3.60;99.90;;;;;;5048646;28;20032;-61
2023/03/15 08:53:07;;;;;;;3.22;2.40;;;3.80;99.90;;;;;;5049398;28;20024;-58
2023/03/15 08:55:32;;;;;;;4.00;1.92;;;3.90;99.90;;;;;;5049043;28;20047;-56
2023/03/15 08:58:00;;;;;;;2.63;1.98;;;4.00;99.90;;;;;;5048605;28;20025;-59
2023/03/15 09:00:26;;;;;;;2.53;1.63;;;3.90;99.90;;;;;;5048693;28;20032;-61
2023/03/15 09:02:52;;;;;;;3.28;1.58;;;3.60;99.90;;;;;;5048555;28;20013;-62
2023/03/15 09:05:18;;;;;;;2.45;1.30;;;3.20;99.90;;;;;;5048863;28;20029;-62
2023/03/15 09:07:44;;;;;;;2.30;0.85;;;2.80;99.90;;;;;;5048794;28;20033;-57
2023/03/15 09:10:13;;;;;;;3.28;1.27;;;2.60;99.90;;;;;;5048602;28;20031;-59
2023/03/15 09:12:43;;;;;;;3.53;1.13;;;2.40;99.90;;;;;;5049094;28;20155;-59
2023/03/15 09:15:10;;;;;;;4.18;1.63;;;2.40;99.90;;;;;;5048680;28;20027;-59
2023/03/15 09:17:36;;;;;;;2.75;1.02;;;2.30;99.90;;;;;;5047458;28;20029;-58
2023/03/15 09:20:06;;;;;;;0.82;0.82;;;2.20;99.90;;;;;;5048057;28;20040;-57
2023/03/15 09:22:32;;;;;;;3.97;1.35;;;2.20;99.90;;;;;;5048577;28;20391;-55
2023/03/15 09:24:58;;;;;;;2.08;0.98;;;2.20;99.90;;;;;;5048663;28;20028;-57
2023/03/15 09:27:23;;;;;;;3.58;1.25;;;2.30;99.90;;;;;;5048826;28;20033;-57
2023/03/15 09:29:49;;;;;;;2.63;1.70;;;2.40;99.90;;;;;;5047918;28;20029;-59
2023/03/15 09:32:14;;;;;;;2.60;1.17;;;2.50;99.90;;;;;;5048694;28;20036;-59
2023/03/15 09:34:40;;;;;;;2.30;1.15;;;2.60;99.90;;;;;;5048546;28;20029;-60
2023/03/15 09:37:06;;;;;;;3.38;1.27;;;2.60;99.90;;;;;;5048305;28;20082;-57
2023/03/15 09:39:32;;;;;;;3.22;1.15;;;2.60;99.90;;;;;;5050487;28;20104;-57
2023/03/15 09:42:00;;;;;;;5.30;1.00;;;2.80;99.90;;;;;;5052801;28;20412;-56
2023/03/15 09:44:38;;;;;;;3.33;0.95;;;2.90;99.90;;;;;;5052160;28;20064;-57
2023/03/15 09:47:27;;;;;;;2.47;1.10;;;3.10;99.90;;;;;;5052761;28;20059;-57
2023/03/15 09:50:00;;;;;;;4.07;1.23;;;3.30;99.90;;;;;;5044494;28;20060;-57
2023/03/15 09:52:32;;;;;;;4.80;0.82;;;3.50;99.90;;;;;;5051529;28;20078;-58
2023/03/15 09:55:03;;;;;;;2.05;1.08;;;3.60;99.90;;;;;;5049476;28;20032;-55
2023/03/15 09:57:57;;;;;;;2.22;0.77;;;3.80;99.90;;;;;;5050804;28;20025;-58
2023/03/15 10:00:32;;;;;;;2.55;1.15;;;3.90;99.90;;;;;;5048521;28;20094;-59
2023/03/15 10:03:02;;;;;;;1.60;0.80;;;4.00;99.90;;;;;;5048538;28;20025;-58
2023/03/15 10:06:00;;;;;;;4.57;1.10;;;3.90;99.90;;;;;;5052145;28;20267;-55
2023/03/15 10:08:26;;;;;;;2.05;0.88;;;3.90;99.90;;;;;;5048159;28;20037;-54
2023/03/15 10:11:28;;;;;;;3.38;1.45;;;3.90;99.90;;;;;;5050430;28;20029;-54
2023/03/15 10:14:03;;;;;;;1.75;0.77;;;3.60;99.90;;;;;;5029548;28;20029;-56
2023/03/15 10:16:47;;;;;;;3.05;0.80;;;3.40;99.90;;;;;;5051312;28;20434;-56
2023/03/15 10:19:53;;;;;;;3.63;0.82;;;3.30;99.90;;;;;;5052004;28;20019;-57
2023/03/15 10:22:58;;;;;;;4.30;0.90;;;3.50;99.90;;;;;;5029005;28;20108;-56
2023/03/15 10:25:28;;;;;;;1.67;0.93;;;3.70;99.90;;;;;;5003431;28;20077;-52
2023/03/15 10:28:09;;;;;;;3.20;0.88;;;4.10;99.90;;;;;;5038992;28;20052;-51
2023/03/15 10:30:38;;;;;;;1.70;0.85;;;4.00;99.90;;;;;;5050559;28;20029;-54
2023/03/15 10:33:11;;;;;;;6.03;1.65;;;3.90;99.90;;;;;;5050598;28;20029;-59
2023/03/15 10:35:37;;;;;;;4.10;1.30;;;3.80;99.90;;;;;;5051192;28;20482;-56
2023/03/15 10:38:15;;;;;;;4.28;1.55;;;3.70;99.90;;;;;;5051608;28;20017;-57
2023/03/15 10:40:42;;;;;;;9.93;1.83;;;3.70;99.90;;;;;;5048599;28;20075;-53
2023/03/15 10:43:13;;;;;;;6.93;1.58;;;3.70;99.90;;;;;;5049675;28;20025;-58
2023/03/15 10:45:39;;;;;;;3.78;1.35;;;3.90;99.90;;;;;;5050811;28;20025;-56
2023/03/15 10:48:04;;;;;;;10.93;1.92;;;3.90;99.90;;;;;;5050784;28;20040;-57
2023/03/15 10:50:31;;;;;;;5.40;0.73;;;3.90;99.90;;;;;;5049986;28;20029;-58
2023/03/15 10:53:00;;;;;;;4.97;0.98;;;3.80;99.90;;;;;;5051292;28;20040;-56
2023/03/15 10:55:35;;;;;;;3.13;1.10;;;3.70;99.90;;;;;;5050760;28;20454;-57
2023/03/15 10:58:16;;;;;;;1.48;1.15;;;3.60;99.90;;;;;;5050588;28;20024;-58
2023/03/15 11:00:49;;;;;;;2.15;1.15;;;3.70;99.90;;;;;;5050640;28;20021;-58
2023/03/15 11:03:20;;;;;;;2.65;0.90;;;3.80;99.90;;;;;;5051269;28;20014;-56
2023/03/15 11:05:52;;;;;;;6.00;1.38;;;3.90;99.90;;;;;;5050812;28;20142;-54
2023/03/15 11:08:40;;;;;;;2.20;1.00;;;4.00;99.90;;;;;;5051218;28;20041;-58
2023/03/15 11:11:07;;;;;;;1.58;1.13;;;4.10;99.90;;;;;;5044946;28;20083;-58
2023/03/15 11:13:38;;;;;;;5.53;1.50;;;4.20;99.90;;;;;;5049689;28;20029;-61
2023/03/15 11:16:05;;;;;;;4.20;0.80;;;4.30;99.90;;;;;;5050205;28;20029;-59
2023/03/15 11:18:41;;;;;;;2.83;0.80;;;4.50;99.90;;;;;;5050876;28;20327;-57
2023/03/15 11:21:09;;;;;;;;;;;4.50;99.90;;;;;;5050718;28;20025;-59
2023/03/15 11:23:39;;;;;;;3.05;1.00;;;4.60;99.90;;;;;;5050222;28;20486;-63
2023/03/15 11:26:05;;;;;;;3.33;1.02;;;4.60;99.90;;;;;;5050521;28;20104;-60
2023/03/15 11:28:34;;;;;;;4.60;0.98;;;4.50;99.90;;;;;;5050595;28;20025;-62
2023/03/15 11:31:03;;;;;;;2.25;0.88;;;4.50;99.90;;;;;;5050005;28;20514;-62
2023/03/15 11:33:35;;;;;;;1.95;0.80;;;4.50;99.90;;;;;;5049047;28;20028;-62
2023/03/15 11:36:05;;;;;;;2.25;0.95;;;4.40;99.90;;;;;;5050177;28;20100;-62
2023/03/15 11:38:43;;;;;;;5.38;0.98;;;4.30;99.90;;;;;;5050326;28;20025;-61
2023/03/15 11:41:28;;;;;;;2.50;0.70;;;4.30;99.90;;;;;;5050056;28;20017;-63
2023/03/15 11:44:01;;;;;;;1.27;0.47;;;3.90;99.90;;;;;;5043690;28;20483;-64
2023/03/15 11:46:29;;;;;;;1.48;0.65;;;3.30;99.90;;;;;;5046800;28;20029;-61
2023/03/15 11:49:02;;;;;;;4.85;0.95;;;3.00;99.90;;;;;;5049697;28;20024;-61
2023/03/15 11:51:32;;;;;;;3.38;0.80;;;2.90;99.90;;;;;;5048657;28;20025;-61
2023/03/15 11:54:10;;;;;;;4.57;0.90;;;2.90;99.90;;;;;;5050269;28;20021;-60
2023/03/15 11:56:49;;;;;;;4.90;1.13;;;2.90;99.90;;;;;;5049748;28;20399;-61
2023/03/15 11:59:18;;;;;;;3.78;1.40;;;2.90;99.90;;;;;;5049790;28;20499;-61
2023/03/15 12:01:48;;;;;;;2.33;0.45;;;3.00;99.90;;;;;;5048494;28;20056;-60
2023/03/15 12:04:32;;;;;;;5.80;1.20;;;3.20;99.90;;;;;;5048781;28;20060;-60
2023/03/15 12:07:23;;;;;;;2.22;0.80;;;3.40;99.90;;;;;;5046616;28;20502;-58
2023/03/15 12:10:03;;;;;;;3.90;1.00;;;3.60;99.90;;;;;;5049592;28;20032;-61
2023/03/15 12:12:29;;;;;;;4.05;1.25;;;3.80;99.90;;;;;;5049767;28;20064;-61
2023/03/15 12:15:04;;;;;;;4.50;1.38;;;3.80;99.90;;;;;;5049070;28;20114;-61
2023/03/15 12:17:29;;;;;;;9.77;2.67;;;4.00;99.90;;;;;;5048571;28;20028;-58
2023/03/15 12:20:13;;;;;;;5.55;1.33;;;4.10;99.90;;;;;;5049245;28;20021;-61
2023/03/15 12:22:52;;;;;;;3.08;1.20;;;4.10;99.90;;;;;;5049973;28;20021;-59
2023/03/15 12:25:43;;;;;;;3.45;1.00;;;4.20;99.90;;;;;;5045777;28;20029;-61
2023/03/15 12:28:24;;;;;;;4.10;1.08;;;4.30;99.90;;;;;;5044016;28;20035;-60
2023/03/15 12:31:00;;;;;;;1.45;0.70;;;4.30;99.90;;;;;;5044926;28;20024;-57
2023/03/15 12:33:28;;;;;;;3.17;1.05;;;4.50;99.90;;;;;;5075600;28;20115;-59
2023/03/15 12:36:33;;;;;;;8.50;1.27;;;4.60;99.90;;;;;;5048327;28;20399;-59
2023/03/15 12:39:18;;;;;;;7.63;1.02;;;4.70;99.90;;;;;;5049069;28;20435;-57
2023/03/15 12:41:47;;;;;;;14.77;1.70;;;4.70;99.90;;;;;;5049169;28;20021;-59
2023/03/15 12:44:31;;;;;;;2.85;0.90;;;4.70;99.90;;;;;;5048853;28;20437;-59
2023/03/15 12:46:59;;;;;;;6.95;1.30;;;4.60;99.90;;;;;;5039707;28;20092;-58
2023/03/15 12:49:30;;;;;;;1.77;0.68;;;4.50;99.90;;;;;;5046385;28;20041;-57
2023/03/15 12:52:10;;;;;;;3.60;1.10;;;4.50;99.90;;;;;;5049488;28;20100;-58
2023/03/15 12:55:02;;;;;;;4.57;0.90;;;4.50;99.90;;;;;;5048895;28;20029;-57
2023/03/15 12:57:35;;;;;;;1.92;1.17;;;4.50;99.90;;;;;;5044715;28;20056;-62
2023/03/15 13:00:10;;;;;;;5.40;0.98;;;4.70;99.90;;;;;;5048522;28;20021;-57
2023/03/15 13:02:43;;;;;;;1.52;0.77;;;4.80;99.90;;;;;;5049056;28;20165;-58
2023/03/15 13:05:09;;;;;;;4.75;1.08;;;4.90;99.90;;;;;;5047544;28;20025;-57